Time;durP1;ratioP1;P1;durP2;ratioP2;P2;SDS_P1;SDS_P2;PMS_P1;PMS_P2;Temp;Humidity;BMP_temperature;BMP_pressure;BME280_temperature;BME280_humidity;BME280_pressure;Samples;Min_cycle;Max_cycle;Signal;HPM_P1;HPM_P2
2022/03/10 00:01:10;;;;;;;6.50;3.45;;;;;;;19.03;36.07;101394.41;5002878;28;20441;-53
2022/03/10 00:03:35;;;;;;;5.50;3.88;;;;;;;19.03;35.94;101393.59;5007766;28;20109;-51
2022/03/10 00:06:01;;;;;;;4.10;3.40;;;;;;;19.03;35.95;101390.97;5004568;28;20042;-48
2022/03/10 00:08:27;;;;;;;4.88;4.00;;;;;;;19.03;35.99;101390.97;5006739;28;20084;-52
2022/03/10 00:10:52;;;;;;;4.63;3.70;;;;;;;19.02;36.13;101395.41;5007231;28;20030;-48
2022/03/10 00:13:18;;;;;;;6.20;3.65;;;;;;;19.02;36.10;101395.41;5006162;28;20050;-53
2022/03/10 00:15:43;;;;;;;4.75;3.72;;;;;;;19.03;36.11;101401.53;5004924;28;20030;-49
2022/03/10 00:18:09;;;;;;;4.03;3.63;;;;;;;19.02;36.03;101399.88;5007160;28;20398;-50
2022/03/10 00:20:34;;;;;;;4.43;4.00;;;;;;;19.03;36.02;101404.16;5007600;28;20412;-55
2022/03/10 00:23:00;;;;;;;4.35;3.38;;;;;;;19.02;35.96;101405.16;5005923;28;20817;-48
2022/03/10 00:25:25;;;;;;;4.32;3.30;;;;;;;19.02;35.99;101397.25;5007699;28;20077;-53
2022/03/10 00:27:51;;;;;;;4.57;3.35;;;;;;;19.02;36.04;101402.53;5005490;28;20111;-51
2022/03/10 00:30:17;;;;;;;4.15;3.35;;;;;;;19.02;36.07;101407.81;5006414;28;20029;-53
2022/03/10 00:32:49;;;;;;;5.35;4.03;;;;;;;19.01;35.92;101404.34;5001798;28;20026;-53
2022/03/10 00:35:17;;;;;;;4.47;3.67;;;;;;;19.02;35.90;101394.59;5006606;28;20041;-52
2022/03/10 00:37:43;;;;;;;4.18;3.60;;;;;;;19.01;35.77;101398.22;5004215;28;20030;-47
2022/03/10 00:40:10;;;;;;;4.50;3.65;;;;;;;19.01;35.68;101403.50;5007833;28;20034;-49
2022/03/10 00:42:37;;;;;;;4.35;3.88;;;;;;;19.00;35.73;101407.16;5006061;28;20034;-49
2022/03/10 00:45:03;;;;;;;3.85;3.45;;;;;;;18.98;35.71;101403.88;5003497;28;20104;-49
2022/03/10 00:47:29;;;;;;;3.42;2.78;;;;;;;18.97;35.70;101403.03;5004924;28;20113;-50
2022/03/10 00:49:54;;;;;;;3.83;3.22;;;;;;;18.95;35.66;101412.13;5007871;28;20042;-52
2022/03/10 00:52:20;;;;;;;4.57;3.17;;;;;;;18.94;35.56;101410.50;5003512;28;20030;-53
2022/03/10 00:54:45;;;;;;;3.80;3.20;;;;;;;18.92;35.68;101409.84;5005007;28;20030;-52
2022/03/10 00:57:11;;;;;;;4.95;3.28;;;;;;;18.90;35.62;101413.50;5003948;28;20045;-49
2022/03/10 00:59:36;;;;;;;4.35;3.03;;;;;;;18.89;35.66;101409.25;5004418;28;20140;-54
2022/03/10 01:02:02;;;;;;;5.78;4.13;;;;;;;18.89;35.59;101409.25;5004220;28;20119;-51
2022/03/10 01:04:27;;;;;;;4.03;3.45;;;;;;;18.90;35.68;101412.69;5000823;28;20053;-51
2022/03/10 01:06:53;;;;;;;6.18;3.95;;;;;;;18.89;35.42;101411.06;5004001;28;20026;-51
2022/03/10 01:09:18;;;;;;;5.65;4.28;;;;;;;18.87;35.60;101408.59;5002503;28;20074;-51
2022/03/10 01:11:43;;;;;;;5.97;4.25;;;;;;;18.87;35.53;101408.59;5002324;28;21398;-50
2022/03/10 01:14:09;;;;;;;5.05;4.45;;;;;;;18.87;35.49;101407.75;5005742;28;20120;-51
2022/03/10 01:16:34;;;;;;;4.75;3.22;;;;;;;18.87;35.41;101411.22;5003956;28;20026;-51
2022/03/10 01:19:00;;;;;;;4.72;3.42;;;;;;;18.86;35.53;101414.03;5007055;28;20038;-49
2022/03/10 01:21:25;;;;;;;3.63;3.03;;;;;;;18.86;35.52;101406.13;5005919;28;20036;-51
2022/03/10 01:23:51;;;;;;;5.07;3.63;;;;;;;18.86;35.45;101403.47;5002594;28;20033;-50
2022/03/10 01:26:16;;;;;;;4.30;3.70;;;;;;;18.85;35.62;101401.84;5009311;28;20112;-52
2022/03/10 01:28:42;;;;;;;4.65;3.97;;;;;;;18.84;35.62;101403.66;5005045;28;20030;-52
2022/03/10 01:31:07;;;;;;;4.90;3.97;;;;;;;18.84;35.67;101403.66;5009845;28;20570;-54
2022/03/10 01:33:34;;;;;;;5.43;4.07;;;;;;;18.84;35.55;101402.84;5007471;28;20547;-54
2022/03/10 01:36:00;;;;;;;5.60;4.10;;;;;;;18.83;35.68;101402.00;5004327;28;20727;-51
2022/03/10 01:38:26;;;;;;;4.50;4.00;;;;;;;18.83;35.45;101401.19;5004260;28;20037;-48
2022/03/10 01:40:51;;;;;;;5.05;3.30;;;;;;;18.82;35.54;101399.56;5004987;28;20401;-48
2022/03/10 01:43:17;;;;;;;3.92;3.22;;;;;;;18.82;35.41;101403.00;5007057;28;20040;-49
2022/03/10 01:45:42;;;;;;;3.95;3.45;;;;;;;18.80;35.39;101396.25;5002818;28;20022;-50
2022/03/10 01:48:08;;;;;;;3.90;3.35;;;;;;;18.78;35.40;101393.78;5005474;28;20022;-46
2022/03/10 01:50:33;;;;;;;4.07;3.47;;;;;;;18.77;35.54;101391.34;5004759;28;20511;-49
2022/03/10 01:53:01;;;;;;;4.82;3.95;;;;;;;18.76;35.26;101387.88;5002280;28;20045;-49
2022/03/10 01:55:27;;;;;;;4.07;3.55;;;;;;;18.74;35.27;101386.41;5020711;28;20037;-46
2022/03/10 01:57:53;;;;;;;5.28;3.78;;;;;;;18.73;35.18;101384.75;5003090;28;20033;-48
2022/03/10 02:00:19;;;;;;;5.00;4.03;;;;;;;18.72;35.28;101381.28;5001274;28;20165;-46
2022/03/10 02:02:44;;;;;;;3.58;3.28;;;;;;;18.70;35.22;101380.66;5001058;28;20030;-47
2022/03/10 02:05:10;;;;;;;5.65;3.97;;;;;;;18.71;35.27;101378.84;5005634;28;20073;-47
2022/03/10 02:13:00;;;;;;;4.65;4.22;;;;;;;18.69;35.32;101368.44;5020159;22;20073;-46
2022/03/10 02:18:12;;;;;;;5.70;4.03;;;;;;;18.69;35.18;101363.16;4968151;28;20074;-46
2022/03/10 02:20:39;;;;;;;4.80;4.30;;;;;;;18.70;35.12;101361.34;4987565;28;20023;-46
2022/03/10 02:23:08;;;;;;;5.68;3.55;;;;;;;18.69;35.08;101363.16;4990217;28;20125;-48
2022/03/10 02:25:36;;;;;;;5.82;4.03;;;;;;;18.70;34.99;101370.09;4990811;28;20064;-47
2022/03/10 02:28:02;;;;;;;4.72;4.15;;;;;;;18.69;34.99;101368.44;4971031;28;20022;-46
2022/03/10 02:30:29;;;;;;;4.25;3.60;;;;;;;18.70;35.00;101364.81;4971619;28;20366;-51
2022/03/10 02:32:55;;;;;;;4.18;3.67;;;;;;;18.70;35.05;101367.44;4989518;28;20033;-50
2022/03/10 02:35:21;;;;;;;5.82;4.57;;;;;;;18.70;35.04;101370.09;4991253;28;20023;-45
2022/03/10 02:37:46;;;;;;;4.72;4.03;;;;;;;18.70;34.93;101370.09;4989273;28;20382;-47
2022/03/10 02:40:12;;;;;;;4.03;3.63;;;;;;;18.70;35.00;101374.53;4990439;28;20034;-48
2022/03/10 02:42:39;;;;;;;4.05;3.33;;;;;;;18.70;34.94;101375.38;4990165;28;20037;-45
2022/03/10 02:45:06;;;;;;;5.00;3.40;;;;;;;18.70;34.98;101375.38;4990253;28;20089;-48
2022/03/10 02:47:32;;;;;;;4.47;4.07;;;;;;;18.70;34.96;101366.63;4989596;28;20022;-46
2022/03/10 02:49:58;;;;;;;4.10;3.70;;;;;;;18.69;34.99;101367.63;4990993;28;20045;-45
2022/03/10 02:52:24;;;;;;;3.53;3.03;;;;;;;18.68;34.80;101372.09;4990220;28;20490;-48
2022/03/10 02:54:50;;;;;;;3.63;3.25;;;;;;;18.67;35.02;101373.06;4989246;28;20041;-50
2022/03/10 02:57:16;;;;;;;3.35;3.05;;;;;;;18.67;34.83;101369.63;4989971;28;20146;-45
2022/03/10 02:59:42;;;;;;;4.53;3.08;;;;;;;18.65;34.99;101363.69;4988666;28;20748;-47
2022/03/10 03:02:08;;;;;;;4.25;3.33;;;;;;;18.64;34.94;101370.78;4990314;28;20030;-49
2022/03/10 03:04:34;;;;;;;4.47;3.08;;;;;;;18.63;34.89;101373.59;4989968;28;20037;-48
2022/03/10 03:07:00;;;;;;;4.10;3.70;;;;;;;18.62;34.92;101378.06;4990322;28;20668;-50
2022/03/10 03:09:25;;;;;;;4.45;3.40;;;;;;;18.62;34.94;101377.22;4989601;28;20606;-48
2022/03/10 03:11:51;;;;;;;4.40;4.00;;;;;;;18.61;34.82;101373.78;4989630;28;20049;-47
2022/03/10 03:14:16;;;;;;;4.07;3.67;;;;;;;18.60;34.84;101368.63;4989543;28;20506;-46
2022/03/10 03:16:43;;;;;;;4.53;3.92;;;;;;;18.60;34.82;101372.13;4990385;28;20060;-46
2022/03/10 03:19:08;;;;;;;4.10;3.50;;;;;;;18.58;34.83;101372.28;4989444;28;20253;-46
2022/03/10 03:21:34;;;;;;;4.10;3.35;;;;;;;18.58;34.96;101368.81;4989554;28;20022;-45
2022/03/10 03:23:59;;;;;;;3.97;3.35;;;;;;;18.57;34.89;101370.63;4989176;28;20026;-48
2022/03/10 03:26:25;;;;;;;3.65;3.08;;;;;;;18.57;34.86;101383.00;4989777;28;20038;-46
2022/03/10 03:28:50;;;;;;;3.72;3.33;;;;;;;18.57;34.99;101385.66;4989083;28;20112;-48
2022/03/10 03:31:16;;;;;;;3.72;3.15;;;;;;;18.57;35.01;101385.66;4988929;28;20026;-47
2022/03/10 03:33:42;;;;;;;3.65;3.35;;;;;;;18.56;35.02;101389.28;4988603;28;20035;-47
2022/03/10 03:36:07;;;;;;;4.18;3.35;;;;;;;18.56;34.91;101398.00;4989875;28;20040;-48
2022/03/10 03:38:33;;;;;;;4.05;3.53;;;;;;;18.55;34.81;101393.72;4987510;28;20104;-47
2022/03/10 03:40:59;;;;;;;3.75;3.45;;;;;;;18.54;34.94;101397.38;4988983;28;20490;-48
2022/03/10 03:43:25;;;;;;;4.55;3.72;;;;;;;18.55;34.93;101403.47;4988918;28;20030;-49
2022/03/10 03:45:50;;;;;;;3.78;3.47;;;;;;;18.54;34.92;101396.53;4989123;28;20468;-49
2022/03/10 03:48:16;;;;;;;4.00;3.55;;;;;;;18.53;34.88;101394.91;4989706;28;20092;-46
2022/03/10 03:50:41;;;;;;;4.03;3.63;;;;;;;18.52;35.01;101395.91;4988454;28;20030;-45
2022/03/10 03:53:07;;;;;;;3.72;3.13;;;;;;;18.51;34.86;101394.25;4989101;28;20200;-46
2022/03/10 03:55:32;;;;;;;4.30;3.17;;;;;;;18.51;34.84;101394.25;4988618;28;20034;-47
2022/03/10 03:57:58;;;;;;;4.20;3.45;;;;;;;18.48;34.87;101398.06;4989031;28;20431;-47
2022/03/10 04:00:23;;;;;;;2.90;2.60;;;;;;;18.48;34.74;101399.88;4988899;28;20096;-51
2022/03/10 04:02:49;;;;;;;4.25;3.85;;;;;;;18.46;34.73;101399.22;4989407;28;20126;-48
2022/03/10 04:05:14;;;;;;;4.00;2.60;;;;;;;18.45;34.78;101400.22;4989180;28;20042;-44
2022/03/10 04:07:40;;;;;;;4.03;3.60;;;;;;;18.44;34.71;101398.56;4989440;28;20042;-46
2022/03/10 04:10:07;;;;;;;4.72;4.05;;;;;;;18.44;34.51;101396.75;4987816;28;20525;-48
2022/03/10 04:12:33;;;;;;;4.65;3.65;;;;;;;18.43;34.53;101400.38;4988983;28;20157;-46
2022/03/10 04:14:59;;;;;;;5.80;3.88;;;;;;;18.44;34.57;101401.22;4988781;28;20124;-47
2022/03/10 04:17:26;;;;;;;4.68;3.42;;;;;;;18.44;34.57;101401.22;4989432;28;20093;-46
2022/03/10 04:19:51;;;;;;;4.85;3.75;;;;;;;18.43;34.55;101405.66;4988555;28;20030;-48
2022/03/10 04:22:17;;;;;;;4.22;3.55;;;;;;;18.43;34.54;101407.50;4987583;28;20026;-46
2022/03/10 04:24:42;;;;;;;5.35;3.90;;;;;;;18.42;34.54;101406.69;4987989;28;20197;-46
2022/03/10 04:27:07;;;;;;;4.53;3.83;;;;;;;18.42;34.52;101413.78;4988700;28;20497;-47
2022/03/10 04:29:34;;;;;;;4.75;4.22;;;;;;;18.41;34.43;101401.59;4989088;28;20089;-47
2022/03/10 04:31:59;;;;;;;4.78;3.90;;;;;;;18.41;34.44;101405.06;4988238;28;20066;-47
2022/03/10 04:34:25;;;;;;;4.25;3.83;;;;;;;18.40;34.44;101400.75;4989035;28;20085;-49
2022/03/10 04:36:50;;;;;;;3.70;3.10;;;;;;;18.42;34.32;101408.50;4988193;28;20035;-50
2022/03/10 04:39:16;;;;;;;4.78;4.25;;;;;;;18.41;34.30;101409.50;4988520;28;20030;-46
2022/03/10 04:41:41;;;;;;;4.30;3.70;;;;;;;18.40;34.29;101406.03;4987026;28;20394;-49
2022/03/10 04:44:06;;;;;;;4.43;3.47;;;;;;;18.40;34.38;101411.31;4987272;28;20026;-49
2022/03/10 04:46:32;;;;;;;4.60;3.75;;;;;;;18.41;34.24;101414.78;4988225;28;20498;-46
2022/03/10 04:48:57;;;;;;;5.10;3.65;;;;;;;18.41;34.19;101420.06;4987574;28;20037;-48
2022/03/10 04:51:23;;;;;;;4.97;4.32;;;;;;;18.41;34.25;101417.41;4988504;28;20026;-52
2022/03/10 04:53:48;;;;;;;6.18;3.67;;;;;;;18.39;34.20;101416.78;4986942;28;20034;-51
2022/03/10 04:56:14;;;;;;;5.47;3.90;;;;;;;18.38;34.28;101423.88;4987290;28;20229;-46
2022/03/10 04:58:39;;;;;;;5.13;3.78;;;;;;;18.39;34.29;101422.03;4987683;28;20464;-55
2022/03/10 05:01:05;;;;;;;6.10;4.30;;;;;;;18.38;34.29;101428.31;4993744;22;20463;-50
2022/03/10 05:03:34;;;;;;;6.43;3.92;;;;;;;18.36;34.39;101425.03;4987535;28;20062;-54
2022/03/10 05:06:00;;;;;;;5.18;4.20;;;;;;;18.35;34.43;101426.84;4988063;28;20088;-49
2022/03/10 05:08:26;;;;;;;6.20;4.25;;;;;;;18.34;34.51;101427.84;4988309;28;20492;-50
2022/03/10 05:10:51;;;;;;;5.20;4.05;;;;;;;18.35;34.46;101426.03;4999201;28;20042;-50
2022/03/10 05:13:16;;;;;;;5.43;3.63;;;;;;;18.33;34.56;101423.56;4987442;28;20030;-47
2022/03/10 05:15:43;;;;;;;5.13;4.00;;;;;;;18.33;34.35;101425.38;4986371;28;20037;-51
2022/03/10 05:18:08;;;;;;;5.53;3.97;;;;;;;18.33;34.41;101425.38;5001694;28;20069;-50
2022/03/10 05:20:34;;;;;;;3.90;3.25;;;;;;;18.32;34.35;101426.38;4987241;28;20026;-48
2022/03/10 05:23:01;;;;;;;6.43;3.85;;;;;;;18.33;34.27;101435.91;4999498;28;20026;-50
2022/03/10 05:25:38;;;;;;;6.63;3.85;;;;;;;18.29;34.18;101429.34;5007258;28;20033;-49
2022/03/10 05:28:13;;;;;;;5.25;3.58;;;;;;;18.31;34.27;101432.63;4986638;28;20034;-47
2022/03/10 05:30:40;;;;;;;7.30;4.10;;;;;;;18.29;34.22;101435.44;5001660;28;20516;-50
2022/03/10 05:33:07;;;;;;;6.10;3.97;;;;;;;18.30;34.19;101431.00;4996411;28;20168;-46
2022/03/10 05:35:33;;;;;;;4.50;3.67;;;;;;;18.29;34.02;101437.25;4986427;28;20030;-54
2022/03/10 05:37:59;;;;;;;5.18;3.75;;;;;;;18.29;34.20;101435.44;5001344;28;20141;-49
2022/03/10 05:40:25;;;;;;;5.30;3.78;;;;;;;18.27;34.09;101434.78;5007449;28;20053;-52
2022/03/10 05:42:53;;;;;;;4.32;3.63;;;;;;;18.29;34.14;101435.44;4986335;28;20430;-50
2022/03/10 05:45:20;;;;;;;4.10;3.58;;;;;;;18.27;34.11;101436.59;4990807;28;20040;-47
2022/03/10 05:47:56;;;;;;;4.40;3.60;;;;;;;18.25;34.00;101442.06;4986604;28;20078;-49
2022/03/10 05:50:24;;;;;;;4.25;3.85;;;;;;;18.26;34.04;101453.41;4987002;28;20022;-48
2022/03/10 05:52:49;;;;;;;5.07;3.60;;;;;;;18.25;33.93;101452.59;4986440;28;20517;-49
2022/03/10 05:55:16;;;;;;;5.05;3.60;;;;;;;18.25;34.07;101455.25;5001710;28;20088;-46
2022/03/10 05:57:42;;;;;;;5.07;3.30;;;;;;;18.23;33.82;101457.22;4983979;28;20077;-50
2022/03/10 06:00:10;;;;;;;4.13;3.72;;;;;;;18.23;33.85;101457.22;4986139;28;20486;-52
2022/03/10 06:02:36;;;;;;;4.97;4.00;;;;;;;18.21;33.91;101459.22;4989080;28;20710;-47
2022/03/10 06:05:02;;;;;;;3.85;3.30;;;;;;;18.20;34.01;101457.56;5007009;28;20026;-48
2022/03/10 06:07:28;;;;;;;3.53;3.17;;;;;;;18.20;33.65;101462.84;4985039;28;20027;-50
2022/03/10 06:09:55;;;;;;;5.18;3.78;;;;;;;18.19;33.72;101466.47;5001119;28;20033;-47
2022/03/10 06:12:21;;;;;;;4.45;3.45;;;;;;;18.18;33.76;101468.28;4984397;28;20034;-50
2022/03/10 06:14:47;;;;;;;4.68;3.92;;;;;;;18.17;33.66;101468.44;4987709;28;20434;-50
2022/03/10 06:17:12;;;;;;;5.55;4.28;;;;;;;18.17;33.70;101474.53;5000601;28;20279;-47
2022/03/10 06:19:38;;;;;;;4.88;4.00;;;;;;;18.17;33.54;101479.81;5006529;28;20389;-49
2022/03/10 06:22:03;;;;;;;4.32;3.92;;;;;;;18.16;33.66;101486.09;4989617;28;20089;-48
2022/03/10 06:24:29;;;;;;;6.43;4.18;;;;;;;18.17;33.72;101486.91;4985409;28;20057;-47
2022/03/10 06:26:54;;;;;;;6.13;3.15;;;;;;;18.17;33.88;101484.28;4984027;28;20043;-48
2022/03/10 06:29:20;;;;;;;5.45;3.58;;;;;;;18.15;33.81;101479.16;4986949;28;20125;-49
2022/03/10 06:31:47;;;;;;;4.32;3.90;;;;;;;18.16;33.89;101483.44;4985685;28;20062;-48
2022/03/10 06:34:13;;;;;;;4.75;3.72;;;;;;;18.15;33.91;101484.44;4984328;28;20030;-49
2022/03/10 06:36:38;;;;;;;4.68;3.55;;;;;;;18.15;33.94;101484.44;4986291;28;20046;-48
2022/03/10 06:39:06;;;;;;;4.22;3.63;;;;;;;18.14;33.91;101488.06;4998234;28;20030;-49
2022/03/10 06:41:31;;;;;;;3.90;3.20;;;;;;;18.15;33.96;101487.06;4990810;28;20341;-50
2022/03/10 06:43:57;;;;;;;3.75;3.20;;;;;;;18.16;33.72;101482.63;4995792;28;20388;-50
2022/03/10 06:46:23;;;;;;;3.38;3.05;;;;;;;18.19;33.36;101485.75;5001986;28;20033;-52
2022/03/10 06:48:49;;;;;;;5.80;3.40;;;;;;;18.22;33.62;101482.78;5006651;28;20144;-47
2022/03/10 06:51:14;;;;;;;4.65;3.42;;;;;;;18.26;33.66;101493.00;5000267;28;20041;-52
2022/03/10 06:53:40;;;;;;;4.53;3.67;;;;;;;18.30;33.56;101494.28;5004565;28;20233;-49
2022/03/10 06:56:05;;;;;;;4.47;3.75;;;;;;;18.33;33.70;101492.16;4998504;28;20391;-46
2022/03/10 06:58:31;;;;;;;4.38;3.80;;;;;;;18.38;33.60;101502.19;4986034;28;20120;-50
2022/03/10 07:00:56;;;;;;;4.25;3.40;;;;;;;18.44;33.58;101502.31;4997204;28;20046;-46
2022/03/10 07:03:22;;;;;;;4.65;3.70;;;;;;;18.50;33.61;101506.06;4993073;28;20449;-50
2022/03/10 07:05:47;;;;;;;7.05;3.63;;;;;;;18.55;33.50;101498.47;5001560;28;20389;-48
2022/03/10 07:08:13;;;;;;;4.05;3.33;;;;;;;18.61;33.52;101497.00;4989884;28;20042;-52
2022/03/10 07:10:38;;;;;;;5.68;3.42;;;;;;;18.68;33.47;101505.88;4986985;28;20085;-48
2022/03/10 07:13:04;;;;;;;5.85;3.63;;;;;;;18.73;33.41;101509.66;4991139;28;20845;-50
2022/03/10 07:15:29;;;;;;;5.03;2.83;;;;;;;18.79;33.17;101501.03;4990238;28;20030;-50
2022/03/10 07:17:55;;;;;;;3.33;3.03;;;;;;;18.87;33.21;101495.72;5002623;28;20044;-49
2022/03/10 07:20:21;;;;;;;5.78;3.20;;;;;;;18.96;33.04;101493.81;5003842;28;20560;-53
2022/03/10 07:22:46;;;;;;;3.95;2.83;;;;;;;19.03;33.18;101489.50;4991970;28;20034;-50
2022/03/10 07:25:11;;;;;;;6.43;3.15;;;;;;;19.08;33.02;101491.63;4988441;28;20026;-50
2022/03/10 07:27:38;;;;;;;4.90;3.90;;;;;;;19.10;32.86;101497.53;4989903;28;20371;-50
2022/03/10 07:30:04;;;;;;;5.05;3.40;;;;;;;19.16;33.23;101496.84;4988451;28;20032;-48
2022/03/10 07:32:30;;;;;;;4.47;2.88;;;;;;;19.18;34.14;101495.69;4986762;28;20053;-52
2022/03/10 07:34:56;;;;;;;5.57;3.00;;;;;;;19.21;35.03;101497.16;4990101;28;20110;-54
2022/03/10 07:37:21;;;;;;;5.75;2.70;;;;;;;19.22;35.80;101501.44;4989252;28;20053;-54
2022/03/10 07:39:47;;;;;;;3.35;2.67;;;;;;;19.23;36.68;101503.06;4985458;28;20076;-58
2022/03/10 07:42:13;;;;;;;5.38;4.05;;;;;;;19.27;37.04;101500.91;5002899;28;20027;-51
2022/03/10 07:44:38;;;;;;;4.60;3.03;;;;;;;19.30;37.12;101516.41;4988503;28;20420;-50
2022/03/10 07:47:04;;;;;;;9.98;5.30;;;;;;;19.35;38.00;101511.41;4987482;28;20076;-49
2022/03/10 07:49:29;;;;;;;9.35;4.35;;;;;;;19.34;38.09;101501.84;4982094;28;20030;-46
2022/03/10 07:51:56;;;;;;;9.70;3.90;;;;;;;19.34;38.71;101505.31;4985679;28;20034;-45
2022/03/10 07:54:22;;;;;;;9.40;4.38;;;;;;;19.37;39.04;101498.84;4987386;28;20129;-49
2022/03/10 07:56:48;;;;;;;11.57;3.85;;;;;;;19.37;39.38;101502.31;4985746;28;20148;-49
2022/03/10 07:59:13;;;;;;;5.70;3.50;;;;;;;19.39;39.70;101500.28;4987304;28;20057;-42
2022/03/10 08:01:39;;;;;;;9.45;4.60;;;;;;;19.45;40.28;101498.75;4990879;28;20157;-46
2022/03/10 08:04:05;;;;;;;11.77;3.88;;;;;;;19.45;40.92;101498.75;4985575;28;20033;-42
2022/03/10 08:06:31;;;;;;;5.80;3.65;;;;;;;19.41;41.64;101492.19;5002831;28;20026;-45
2022/03/10 08:08:57;;;;;;;6.75;3.50;;;;;;;19.38;41.89;101489.91;4989178;28;20076;-47
2022/03/10 08:11:22;;;;;;;8.98;2.70;;;;;;;19.38;41.64;101481.97;4989726;28;20054;-44
2022/03/10 08:13:48;;;;;;;4.38;2.75;;;;;;;19.37;41.62;101483.81;4986597;28;20026;-46
2022/03/10 08:16:14;;;;;;;7.57;3.40;;;;;;;19.35;41.27;101474.44;4986161;28;20054;-45
2022/03/10 08:18:40;;;;;;;7.00;3.08;;;;;;;19.35;40.98;101471.78;4987150;28;20035;-48
2022/03/10 08:21:06;;;;;;;11.32;3.42;;;;;;;19.34;40.57;101472.78;4986733;28;20038;-44
2022/03/10 08:23:31;;;;;;;5.07;3.15;;;;;;;19.34;39.71;101472.78;4994668;28;20092;-46
2022/03/10 08:25:57;;;;;;;6.40;3.03;;;;;;;19.34;39.16;101472.78;4991449;28;20104;-45
2022/03/10 08:28:23;;;;;;;10.05;3.55;;;;;;;19.34;39.34;101468.31;4992461;28;20030;-43
2022/03/10 08:30:48;;;;;;;9.25;3.25;;;;;;;19.39;40.02;101463.28;4982666;28;20038;-44
2022/03/10 08:33:14;;;;;;;5.18;2.80;;;;;;;19.40;40.32;101467.59;4981516;28;20525;-51
2022/03/10 08:35:40;;;;;;;5.40;2.78;;;;;;;19.39;39.98;101473.88;4987440;28;20265;-46
2022/03/10 08:38:05;;;;;;;8.60;2.90;;;;;;;19.39;39.83;101470.41;4989037;28;20479;-45
2022/03/10 08:40:31;;;;;;;10.15;3.75;;;;;;;19.39;39.34;101465.94;4993128;28;20697;-46
2022/03/10 08:42:56;;;;;;;14.25;3.90;;;;;;;19.37;38.95;101460.03;4990059;28;20034;-46
2022/03/10 08:45:25;;;;;;;10.93;4.07;;;;;;;19.35;38.48;101459.41;4995125;28;20643;-44
2022/03/10 08:47:53;;;;;;;6.78;3.05;;;;;;;19.36;38.09;101460.22;4993636;28;20034;-44
2022/03/10 08:50:18;;;;;;;7.55;3.90;;;;;;;19.36;38.12;101460.22;4994523;28;20034;-43
2022/03/10 08:52:44;;;;;;;8.02;3.30;;;;;;;19.35;38.01;101454.13;4996409;28;20782;-45
2022/03/10 08:55:11;;;;;;;7.07;3.53;;;;;;;19.35;37.96;101454.13;5008667;28;20021;-42
2022/03/10 08:57:37;;;;;;;5.70;2.53;;;;;;;19.35;37.77;101454.13;5005119;28;20041;-46
2022/03/10 09:00:05;;;;;;;4.88;3.17;;;;;;;19.32;38.02;101451.00;5003764;28;20383;-46
2022/03/10 09:02:31;;;;;;;8.13;2.55;;;;;;;19.30;38.16;101460.94;4985441;28;20042;-45
2022/03/10 09:04:56;;;;;;;5.78;2.30;;;;;;;19.29;38.22;101454.00;4988039;28;20437;-42
2022/03/10 09:07:22;;;;;;;6.07;1.80;;;;;;;19.28;38.24;101447.88;4993866;28;20728;-42
2022/03/10 09:09:48;;;;;;;7.72;3.10;;;;;;;19.27;38.22;101448.06;4996104;28;20049;-41
2022/03/10 09:12:13;;;;;;;5.15;2.10;;;;;;;19.27;38.16;101445.44;4985597;28;20036;-46
2022/03/10 09:14:39;;;;;;;8.57;3.22;;;;;;;19.28;37.92;101442.59;4989511;28;20030;-45
2022/03/10 09:17:05;;;;;;;7.38;2.80;;;;;;;19.28;37.50;101447.06;4991150;28;20524;-44
2022/03/10 09:19:30;;;;;;;6.72;2.83;;;;;;;19.30;37.47;101445.06;4984887;28;20481;-43
2022/03/10 09:21:56;;;;;;;6.25;3.67;;;;;;;19.30;37.41;101437.97;4994643;28;20094;-43
2022/03/10 09:24:21;;;;;;;8.60;3.53;;;;;;;19.32;37.12;101432.50;4999963;28;20080;-45
2022/03/10 09:26:47;;;;;;;8.82;3.33;;;;;;;19.33;37.10;101429.69;4985487;28;20045;-42
2022/03/10 09:29:12;;;;;;;7.60;3.25;;;;;;;19.35;36.98;101427.69;4983084;28;20155;-43
2022/03/10 09:31:38;;;;;;;8.40;3.10;;;;;;;19.37;37.08;101436.25;4984037;28;20100;-45
2022/03/10 09:34:04;;;;;;;8.20;2.75;;;;;;;19.37;37.14;101433.63;4983013;28;20500;-43
2022/03/10 09:36:30;;;;;;;5.93;3.03;;;;;;;19.38;37.23;101429.94;4982123;28;20496;-47
2022/03/10 09:38:56;;;;;;;8.07;2.75;;;;;;;19.39;37.30;101436.06;4988905;28;20462;-43
2022/03/10 09:41:22;;;;;;;8.75;2.88;;;;;;;19.35;37.44;101430.31;4984357;28;20030;-41
2022/03/10 09:43:49;;;;;;;5.70;2.40;;;;;;;19.36;37.53;101429.34;4986694;28;20031;-43
2022/03/10 09:46:15;;;;;;;3.90;2.47;;;;;;;19.35;37.42;101430.31;4994243;28;20034;-42
2022/03/10 09:48:41;;;;;;;8.77;2.60;;;;;;;19.36;37.43;101431.16;5002045;28;20038;-42
2022/03/10 09:51:07;;;;;;;6.40;2.40;;;;;;;19.35;37.59;101421.59;5007138;28;20040;-43
2022/03/10 09:53:34;;;;;;;4.68;2.33;;;;;;;19.33;37.79;101419.13;5005869;28;20149;-45
2022/03/10 09:56:02;;;;;;;2.33;1.90;;;;;;;19.33;37.67;101426.22;5000886;28;20034;-43
2022/03/10 09:58:28;;;;;;;3.38;2.40;;;;;;;19.32;37.82;101416.66;5004794;28;20034;-43
2022/03/10 10:01:06;;;;;;;10.27;2.55;;;;;;;19.29;37.88;101423.13;5006904;28;20658;-43
2022/03/10 10:03:33;;;;;;;6.07;2.30;;;;;;;19.29;37.93;101422.28;5010958;28;20042;-42
2022/03/10 10:06:00;;;;;;;2.67;1.75;;;;;;;19.27;37.95;101419.81;4975737;28;20034;-44
2022/03/10 10:08:27;;;;;;;5.82;2.47;;;;;;;19.24;37.93;101414.91;5005197;28;20363;-46
2022/03/10 10:10:56;;;;;;;3.22;1.92;;;;;;;19.23;37.96;101415.91;5002096;28;20379;-42
2022/03/10 10:13:39;;;;;;;5.13;1.90;;;;;;;19.18;38.21;101411.16;5002757;28;20042;-46
2022/03/10 10:16:13;;;;;;;3.22;1.65;;;;;;;19.17;38.25;101412.16;5004554;28;20504;-46
2022/03/10 10:18:40;;;;;;;3.10;1.80;;;;;;;19.16;38.19;101405.22;5006672;28;20532;-42
2022/03/10 10:21:07;;;;;;;4.60;1.58;;;;;;;19.15;38.28;101405.38;4999893;28;20034;-47
2022/03/10 10:23:37;;;;;;;5.28;1.83;;;;;;;19.14;38.48;101398.47;5004005;28;20022;-45
2022/03/10 10:26:04;;;;;;;3.97;1.83;;;;;;;19.14;38.33;101395.81;5003743;28;20350;-42
2022/03/10 10:28:35;;;;;;;2.03;1.45;;;;;;;19.14;38.43;101388.72;5005501;28;20077;-41
2022/03/10 10:31:00;;;;;;;4.75;2.10;;;;;;;19.14;38.39;101390.53;4992011;28;20091;-43
2022/03/10 10:33:28;;;;;;;2.60;1.33;;;;;;;19.15;38.43;101394.81;4987340;28;20030;-44
2022/03/10 10:36:25;;;;;;;5.03;1.92;;;;;;;19.12;38.61;101389.91;4986781;28;20026;-41
2022/03/10 10:39:09;;;;;;;3.70;1.48;;;;;;;19.11;38.61;101386.44;5001996;28;20034;-45
2022/03/10 10:41:36;;;;;;;4.38;2.00;;;;;;;19.13;38.48;101394.19;4990086;28;20567;-45
2022/03/10 10:44:12;;;;;;;2.30;1.60;;;;;;;19.11;38.47;101386.44;4990814;28;20030;-42
2022/03/10 10:46:38;;;;;;;4.20;1.52;;;;;;;19.12;38.49;101384.63;5012378;28;20036;-41
2022/03/10 10:49:09;;;;;;;2.83;1.45;;;;;;;19.11;38.55;101383.78;5010461;28;20076;-43
2022/03/10 10:51:41;;;;;;;2.22;1.20;;;;;;;19.12;38.61;101382.78;5004634;28;20288;-41
2022/03/10 10:54:27;;;;;;;2.40;1.27;;;;;;;19.09;38.61;101382.31;5007244;28;20133;-42
2022/03/10 10:57:07;;;;;;;2.90;1.50;;;;;;;19.08;38.57;101378.03;5008854;28;20049;-41
2022/03/10 10:59:35;;;;;;;1.88;1.35;;;;;;;19.10;38.63;101370.75;4994710;28;20022;-42
2022/03/10 11:02:11;;;;;;;2.40;1.40;;;;;;;19.08;38.54;101364.84;5010054;28;20050;-43
2022/03/10 11:04:42;;;;;;;3.42;1.40;;;;;;;19.07;38.66;101366.66;5010136;28;20034;-44
2022/03/10 11:07:11;;;;;;;4.13;1.08;;;;;;;19.07;38.73;101360.56;4997178;28;20041;-42
2022/03/10 11:09:41;;;;;;;2.63;1.33;;;;;;;19.04;38.83;101360.91;5001003;28;20503;-41
2022/03/10 11:12:09;;;;;;;2.22;1.33;;;;;;;19.03;38.75;101359.25;5010014;28;20065;-42
2022/03/10 11:14:35;;;;;;;2.75;1.48;;;;;;;19.01;38.78;101345.41;5005866;28;20434;-41
2022/03/10 11:17:01;;;;;;;1.60;1.38;;;;;;;19.00;38.83;101351.69;5007424;28;20083;-42
2022/03/10 11:19:32;;;;;;;3.60;1.38;;;;;;;18.99;38.92;101347.41;5009798;28;20037;-44
2022/03/10 11:22:40;;;;;;;1.95;1.40;;;;;;;18.95;38.99;101340.84;4990095;28;20245;-42
2022/03/10 11:25:26;;;;;;;1.88;1.00;;;;;;;18.95;39.12;101338.19;4970842;28;20038;-42
2022/03/10 11:27:59;;;;;;;1.35;1.10;;;;;;;18.93;38.92;101332.28;4994776;28;20385;-44
2022/03/10 11:30:29;;;;;;;2.88;1.38;;;;;;;18.94;38.98;101333.91;5009630;28;20108;-41